Time;durP1;ratioP1;P1;durP2;ratioP2;P2;SDS_P1;SDS_P2;PMS_P1;PMS_P2;Temp;Humidity;BMP_temperature;BMP_pressure;BME280_temperature;BME280_humidity;BME280_pressure;Samples;Min_cycle;Max_cycle;Signal;HPM_P1;HPM_P2
2022/04/08 00:00:29;;;;;;;5.60;1.33;;;;;;;;;;739354;187;919555;-65
2022/04/08 00:02:54;;;;;;;1.80;0.83;;;;;;;;;;749519;185;919142;-67
2022/04/08 00:05:20;;;;;;;2.10;1.00;;;;;;;;;;744590;187;919040;-64
2022/04/08 00:07:46;;;;;;;3.23;0.90;;;;;;;;;;734292;187;917787;-66
2022/04/08 00:10:13;;;;;;;3.37;1.10;;;;;;;;;;742171;187;919837;-64
2022/04/08 00:12:38;;;;;;;2.73;1.17;;;;;;;;;;744087;187;919680;-65
2022/04/08 00:15:04;;;;;;;2.30;1.08;;;;;;;;;;747963;184;919962;-64
2022/04/08 00:17:30;;;;;;;2.00;0.93;;;;;;;;;;748893;184;918393;-64
2022/04/08 00:19:56;;;;;;;3.60;1.03;;;;;;;;;;746212;185;919188;-65
2022/04/08 00:22:23;;;;;;;2.30;1.00;;;;;;;;;;746779;186;918713;-64
2022/04/08 00:24:48;;;;;;;1.93;0.90;;;;;;;;;;747644;187;919466;-65
2022/04/08 00:27:14;;;;;;;2.83;0.90;;;;;;;;;;742219;188;918661;-64
2022/04/08 00:29:39;;;;;;;2.43;1.30;;;;;;;;;;742452;185;919414;-65
2022/04/08 00:32:06;;;;;;;3.43;1.10;;;;;;;;;;750299;187;919381;-65
2022/04/08 00:34:31;;;;;;;3.60;1.00;;;;;;;;;;741537;187;919888;-64
2022/04/08 00:36:57;;;;;;;2.07;1.10;;;;;;;;;;745486;185;918813;-66
2022/04/08 00:39:23;;;;;;;2.33;1.02;;;;;;;;;;747725;186;1020302;-64
2022/04/08 00:41:49;;;;;;;3.00;1.20;;;;;;;;;;748098;187;919173;-63
2022/04/08 00:44:15;;;;;;;2.10;1.00;;;;;;;;;;744279;187;919493;-65
2022/04/08 00:46:41;;;;;;;3.93;1.40;;;;;;;;;;748141;185;919163;-64
2022/04/08 00:49:06;;;;;;;2.50;1.00;;;;;;;;;;751436;187;921503;-63
2022/04/08 00:51:33;;;;;;;3.30;1.20;;;;;;;;;;748572;186;919215;-63
2022/04/08 00:53:59;;;;;;;2.60;1.10;;;;;;;;;;744475;186;920070;-64
2022/04/08 00:56:25;;;;;;;2.00;0.90;;;;;;;;;;747993;185;920237;-64
2022/04/08 00:58:51;;;;;;;4.73;1.17;;;;;;;;;;747132;186;920767;-64
2022/04/08 01:01:17;;;;;;;1.90;1.03;;;;;;;;;;744413;187;919992;-64
2022/04/08 01:03:43;;;;;;;3.47;1.33;;;;;;;;;;741797;185;920029;-64
2022/04/08 01:06:08;;;;;;;3.80;1.63;;;;;;;;;;747213;185;918570;-63
2022/04/08 01:08:35;;;;;;;2.20;0.90;;;;;;;;;;730205;187;918378;-64
2022/04/08 01:11:00;;;;;;;2.10;1.00;;;;;;;;;;744939;186;919190;-65
2022/04/08 01:13:27;;;;;;;3.13;1.60;;;;;;;;;;753623;185;920030;-65
2022/04/08 01:15:53;;;;;;;6.23;1.10;;;;;;;;;;745972;185;922017;-63
2022/04/08 01:18:19;;;;;;;2.53;1.40;;;;;;;;;;745488;185;922218;-64
2022/04/08 01:20:44;;;;;;;4.73;1.20;;;;;;;;;;753521;184;919703;-64
2022/04/08 01:23:10;;;;;;;3.85;1.30;;;;;;;;;;749383;184;918346;-63
2022/04/08 01:25:36;;;;;;;2.80;0.93;;;;;;;;;;743902;185;916177;-64
2022/04/08 01:28:02;;;;;;;3.63;1.40;;;;;;;;;;746903;184;915549;-64
2022/04/08 01:30:28;;;;;;;3.50;1.37;;;;;;;;;;752491;181;915911;-65
2022/04/08 01:32:54;;;;;;;3.70;1.70;;;;;;;;;;744857;186;914787;-63
2022/04/08 01:35:19;;;;;;;2.50;1.20;;;;;;;;;;744512;186;919511;-65
2022/04/08 01:37:45;;;;;;;4.83;1.50;;;;;;;;;;753298;186;919412;-65
2022/04/08 01:40:11;;;;;;;2.77;1.00;;;;;;;;;;746358;187;919475;-63
2022/04/08 01:42:37;;;;;;;2.25;1.17;;;;;;;;;;747821;187;1021020;-63
2022/04/08 01:45:03;;;;;;;4.73;1.50;;;;;;;;;;754620;184;919481;-63
2022/04/08 01:47:29;;;;;;;3.90;1.30;;;;;;;;;;747720;185;918562;-63
2022/04/08 01:49:55;;;;;;;2.22;1.15;;;;;;;;;;745761;187;919272;-63
2022/04/08 01:52:21;;;;;;;4.25;1.30;;;;;;;;;;746443;186;919341;-63
2022/04/08 01:54:47;;;;;;;5.83;1.20;;;;;;;;;;745150;187;934277;-63
2022/04/08 01:57:13;;;;;;;3.50;1.17;;;;;;;;;;743016;188;919401;-62
2022/04/08 01:59:39;;;;;;;4.07;1.60;;;;;;;;;;743912;186;918311;-63
2022/04/08 02:02:05;;;;;;;2.97;1.30;;;;;;;;;;750712;187;918883;-61
2022/04/08 02:04:30;;;;;;;5.72;2.00;;;;;;;;;;751846;185;919609;-62
2022/04/08 02:06:56;;;;;;;3.97;2.07;;;;;;;;;;743781;187;918509;-63
2022/04/08 02:09:22;;;;;;;2.10;1.10;;;;;;;;;;744806;187;918871;-62
2022/04/08 02:11:48;;;;;;;4.00;1.13;;;;;;;;;;739220;185;918980;-62
2022/04/08 02:14:14;;;;;;;3.03;1.30;;;;;;;;;;739314;186;920249;-62
2022/04/08 02:16:40;;;;;;;2.20;1.13;;;;;;;;;;748272;187;919709;-63
2022/04/08 02:19:05;;;;;;;5.10;1.40;;;;;;;;;;712918;193;920563;-62
2022/04/08 02:21:32;;;;;;;2.63;1.10;;;;;;;;;;712795;193;920373;-61
2022/04/08 02:23:57;;;;;;;5.60;1.30;;;;;;;;;;739320;188;921312;-62
2022/04/08 02:26:23;;;;;;;4.67;1.50;;;;;;;;;;754044;185;616072;-62
2022/04/08 02:28:49;;;;;;;5.93;1.60;;;;;;;;;;741634;186;919449;-62
2022/04/08 02:31:15;;;;;;;5.25;1.73;;;;;;;;;;742251;185;1022080;-62
2022/04/08 02:33:41;;;;;;;3.33;1.70;;;;;;;;;;745576;185;915219;-63
2022/04/08 02:36:07;;;;;;;4.17;1.90;;;;;;;;;;748077;184;627346;-63
2022/04/08 02:38:33;;;;;;;4.70;1.40;;;;;;;;;;752629;184;619796;-64
2022/04/08 02:40:58;;;;;;;5.30;1.40;;;;;;;;;;751573;186;918601;-62
2022/04/08 02:43:24;;;;;;;5.60;1.47;;;;;;;;;;749321;185;1017427;-63
2022/04/08 02:45:50;;;;;;;5.10;1.57;;;;;;;;;;752073;184;628961;-63
2022/04/08 02:48:16;;;;;;;5.37;1.77;;;;;;;;;;748170;185;919117;-63
2022/04/08 02:50:42;;;;;;;5.70;1.40;;;;;;;;;;738245;188;918984;-61
2022/04/08 02:53:08;;;;;;;3.03;1.43;;;;;;;;;;737454;185;920012;-63
2022/04/08 02:55:35;;;;;;;7.37;1.55;;;;;;;;;;742952;186;920832;-62
2022/04/08 02:57:59;;;;;;;7.57;1.50;;;;;;;;;;749797;182;918463;-66
2022/04/08 03:00:25;;;;;;;4.90;1.50;;;;;;;;;;749252;185;921617;-63
2022/04/08 03:02:51;;;;;;;3.55;1.20;;;;;;;;;;744714;185;920980;-64
2022/04/08 03:05:17;;;;;;;3.83;1.43;;;;;;;;;;748136;187;919176;-63
2022/04/08 03:07:44;;;;;;;3.10;1.70;;;;;;;;;;745140;184;926550;-62
2022/04/08 03:10:09;;;;;;;7.50;1.83;;;;;;;;;;742900;185;919350;-62
2022/04/08 03:12:35;;;;;;;9.30;1.30;;;;;;;;;;741272;187;919500;-62
2022/04/08 03:15:01;;;;;;;7.57;1.40;;;;;;;;;;739611;187;920270;-62
2022/04/08 03:17:27;;;;;;;2.97;2.00;;;;;;;;;;741321;185;915621;-62
2022/04/08 03:19:53;;;;;;;4.97;1.47;;;;;;;;;;740783;185;914567;-62
2022/04/08 03:22:20;;;;;;;3.40;1.47;;;;;;;;;;746962;185;623566;-62
2022/04/08 03:24:45;;;;;;;2.97;1.63;;;;;;;;;;746336;186;630096;-62
2022/04/08 03:27:10;;;;;;;7.10;1.67;;;;;;;;;;743946;187;919236;-62
2022/04/08 03:29:36;;;;;;;5.97;1.63;;;;;;;;;;749498;185;919948;-63
2022/04/08 03:32:02;;;;;;;5.07;1.60;;;;;;;;;;744473;187;919493;-62
2022/04/08 03:34:28;;;;;;;9.40;1.53;;;;;;;;;;741242;186;918686;-62
2022/04/08 03:36:54;;;;;;;4.83;1.60;;;;;;;;;;742195;187;919902;-62
2022/04/08 03:39:20;;;;;;;3.55;1.60;;;;;;;;;;738959;188;918779;-62
2022/04/08 03:41:46;;;;;;;4.50;1.53;;;;;;;;;;739990;187;920096;-63
2022/04/08 03:44:11;;;;;;;7.00;2.07;;;;;;;;;;740761;186;957741;-62
2022/04/08 03:46:37;;;;;;;3.97;1.50;;;;;;;;;;746565;187;919863;-61
2022/04/08 03:49:11;;;;;;;3.83;1.10;;;;;;;;;;743871;187;917858;-62
2022/04/08 03:51:29;;;;;;;3.13;1.20;;;;;;;;;;741449;184;919215;-63
2022/04/08 03:53:55;;;;;;;8.60;1.93;;;;;;;;;;748837;186;919388;-61
2022/04/08 03:56:21;;;;;;;6.27;1.53;;;;;;;;;;744667;186;920091;-61
2022/04/08 03:58:46;;;;;;;4.47;1.70;;;;;;;;;;747625;185;919352;-62
2022/04/08 04:01:12;;;;;;;4.83;1.30;;;;;;;;;;746608;185;919021;-62
2022/04/08 04:03:38;;;;;;;3.00;1.20;;;;;;;;;;743167;187;924978;-61
2022/04/08 04:06:04;;;;;;;10.93;2.20;;;;;;;;;;740861;187;919555;-62
2022/04/08 04:08:30;;;;;;;3.35;1.42;;;;;;;;;;740895;187;918863;-62
2022/04/08 04:10:56;;;;;;;5.33;1.80;;;;;;;;;;743260;185;918407;-62
2022/04/08 04:13:21;;;;;;;5.43;1.40;;;;;;;;;;739745;185;918500;-61
2022/04/08 04:15:47;;;;;;;4.83;1.70;;;;;;;;;;741360;184;919231;-61
2022/04/08 04:18:13;;;;;;;7.50;1.47;;;;;;;;;;749299;185;919156;-61
2022/04/08 04:20:39;;;;;;;2.70;1.17;;;;;;;;;;745140;185;919294;-63
2022/04/08 04:23:05;;;;;;;5.20;1.83;;;;;;;;;;743329;184;918042;-61
2022/04/08 04:25:31;;;;;;;7.63;2.00;;;;;;;;;;749404;186;919126;-61
2022/04/08 04:27:56;;;;;;;9.70;1.40;;;;;;;;;;742330;184;918070;-62
2022/04/08 04:30:24;;;;;;;3.50;1.20;;;;;;;;;;741340;187;918640;-61
2022/04/08 04:32:48;;;;;;;4.72;2.08;;;;;;;;;;744631;187;1021033;-65
2022/04/08 04:35:14;;;;;;;4.37;1.60;;;;;;;;;;742590;184;919203;-61
2022/04/08 04:37:40;;;;;;;4.20;1.73;;;;;;;;;;744055;186;1026049;-62
2022/04/08 04:40:08;;;;;;;5.70;1.60;;;;;;;;;;738374;186;1020672;-61
2022/04/08 04:42:32;;;;;;;6.07;1.70;;;;;;;;;;753336;186;629853;-61
2022/04/08 04:44:58;;;;;;;4.63;1.60;;;;;;;;;;744057;185;918913;-61
2022/04/08 04:47:23;;;;;;;9.10;1.48;;;;;;;;;;741620;185;1228831;-61
2022/04/08 04:49:49;;;;;;;6.53;1.63;;;;;;;;;;749627;184;610466;-62
2022/04/08 04:52:15;;;;;;;4.27;1.83;;;;;;;;;;743591;184;1017601;-60
2022/04/08 04:54:41;;;;;;;4.90;3.00;;;;;;;;;;746774;186;712355;-62
2022/04/08 04:57:07;;;;;;;4.93;1.57;;;;;;;;;;747773;187;916648;-62
2022/04/08 04:59:33;;;;;;;3.50;1.40;;;;;;;;;;746364;186;629936;-61
2022/04/08 05:01:59;;;;;;;3.70;1.70;;;;;;;;;;746515;187;622291;-62
2022/04/08 05:04:24;;;;;;;4.57;2.17;;;;;;;;;;752451;185;911703;-62
2022/04/08 05:06:50;;;;;;;5.40;1.70;;;;;;;;;;749004;185;918837;-61
2022/04/08 05:09:16;;;;;;;7.43;1.95;;;;;;;;;;746450;184;919217;-61
2022/04/08 05:11:42;;;;;;;3.10;1.43;;;;;;;;;;742979;186;919090;-61
2022/04/08 05:14:08;;;;;;;5.53;1.70;;;;;;;;;;750489;186;935524;-62
2022/04/08 05:16:34;;;;;;;5.73;2.00;;;;;;;;;;745098;185;920823;-61
2022/04/08 05:19:00;;;;;;;4.37;1.87;;;;;;;;;;744564;185;919321;-62
2022/04/08 05:21:29;;;;;;;13.80;2.93;;;;;;;;;;750821;184;918978;-62
2022/04/08 05:23:51;;;;;;;5.07;1.80;;;;;;;;;;741921;184;918984;-61
2022/04/08 05:26:18;;;;;;;4.20;1.43;;;;;;;;;;742548;184;919894;-62
2022/04/08 05:28:43;;;;;;;3.03;1.50;;;;;;;;;;747740;184;1020778;-62
2022/04/08 05:31:09;;;;;;;4.17;1.20;;;;;;;;;;752769;185;919231;-63
2022/04/08 05:33:35;;;;;;;5.63;1.70;;;;;;;;;;747693;185;919486;-62
2022/04/08 05:36:00;;;;;;;2.97;1.20;;;;;;;;;;745704;184;918416;-62
2022/04/08 05:38:26;;;;;;;9.03;1.40;;;;;;;;;;753447;184;918872;-61
2022/04/08 05:40:52;;;;;;;4.70;1.47;;;;;;;;;;743482;186;918816;-61
2022/04/08 05:43:18;;;;;;;4.10;1.47;;;;;;;;;;743895;186;918884;-63
2022/04/08 05:45:44;;;;;;;4.70;1.90;;;;;;;;;;751604;185;937979;-62
2022/04/08 05:48:10;;;;;;;5.87;1.57;;;;;;;;;;744978;185;918879;-63
2022/04/08 05:50:36;;;;;;;7.77;1.47;;;;;;;;;;742442;185;920621;-63
2022/04/08 05:53:01;;;;;;;9.83;1.50;;;;;;;;;;748371;187;918330;-62
2022/04/08 05:55:27;;;;;;;5.37;1.73;;;;;;;;;;746576;187;918462;-62
2022/04/08 05:57:55;;;;;;;2.47;1.03;;;;;;;;;;744393;184;1032467;-63
2022/04/08 06:00:20;;;;;;;3.63;1.50;;;;;;;;;;739524;187;921007;-63
2022/04/08 06:02:47;;;;;;;2.93;1.30;;;;;;;;;;747015;185;918823;-62
2022/04/08 06:05:11;;;;;;;6.63;1.40;;;;;;;;;;741013;185;919811;-62
2022/04/08 06:07:43;;;;;;;5.17;1.67;;;;;;;;;;739749;184;919484;-63
2022/04/08 06:10:09;;;;;;;5.00;1.37;;;;;;;;;;747060;185;915238;-62
2022/04/08 06:12:34;;;;;;;7.10;1.53;;;;;;;;;;747958;185;919541;-66
2022/04/08 06:15:00;;;;;;;8.00;1.40;;;;;;;;;;747605;185;918193;-64
2022/04/08 06:17:26;;;;;;;3.70;1.60;;;;;;;;;;753204;185;632120;-64
2022/04/08 06:19:52;;;;;;;3.87;1.37;;;;;;;;;;747249;185;816375;-63
2022/04/08 06:22:18;;;;;;;9.80;1.77;;;;;;;;;;740092;185;920093;-63
2022/04/08 06:24:44;;;;;;;1.97;0.90;;;;;;;;;;743193;184;918084;-64
2022/04/08 06:27:09;;;;;;;3.50;1.10;;;;;;;;;;744411;186;916889;-62
2022/04/08 06:29:35;;;;;;;3.30;1.60;;;;;;;;;;738658;186;919047;-64
2022/04/08 06:32:01;;;;;;;5.95;1.30;;;;;;;;;;738338;186;919414;-62
2022/04/08 06:34:27;;;;;;;6.20;1.60;;;;;;;;;;747558;187;1021475;-64
2022/04/08 06:36:53;;;;;;;4.30;1.23;;;;;;;;;;751019;184;966829;-63
2022/04/08 06:39:19;;;;;;;6.50;2.30;;;;;;;;;;744897;185;919001;-63
2022/04/08 06:41:45;;;;;;;8.40;1.80;;;;;;;;;;744078;185;1037835;-64
2022/04/08 06:44:11;;;;;;;3.73;1.43;;;;;;;;;;744951;184;1022741;-64
2022/04/08 06:46:36;;;;;;;2.53;1.17;;;;;;;;;;747435;187;918487;-64
2022/04/08 06:49:02;;;;;;;4.80;1.73;;;;;;;;;;746670;185;914756;-63
2022/04/08 06:51:28;;;;;;;4.25;1.00;;;;;;;;;;744808;186;915711;-64
2022/04/08 06:53:54;;;;;;;5.30;1.20;;;;;;;;;;741377;186;916283;-63
2022/04/08 06:56:20;;;;;;;3.30;1.20;;;;;;;;;;746326;187;915670;-64
2022/04/08 06:58:46;;;;;;;3.75;1.50;;;;;;;;;;745727;187;915231;-63
2022/04/08 07:01:11;;;;;;;3.70;1.23;;;;;;;;;;741518;187;918447;-64
2022/04/08 07:03:37;;;;;;;4.40;1.60;;;;;;;;;;739958;187;918587;-63
2022/04/08 07:06:03;;;;;;;6.20;1.35;;;;;;;;;;741351;187;919106;-63
2022/04/08 07:08:29;;;;;;;4.50;1.57;;;;;;;;;;747576;186;889682;-64
2022/04/08 07:10:55;;;;;;;2.47;0.90;;;;;;;;;;743679;187;919096;-64
2022/04/08 07:13:21;;;;;;;8.00;1.47;;;;;;;;;;744573;185;998763;-64
2022/04/08 07:15:47;;;;;;;6.03;1.70;;;;;;;;;;745721;185;918246;-63
2022/04/08 07:18:12;;;;;;;4.03;1.50;;;;;;;;;;739177;185;919168;-64
2022/04/08 07:20:38;;;;;;;5.30;1.60;;;;;;;;;;743088;185;920659;-64
2022/04/08 07:23:05;;;;;;;4.50;1.43;;;;;;;;;;751601;185;918045;-63
2022/04/08 07:25:30;;;;;;;3.63;1.00;;;;;;;;;;748729;184;934474;-65
2022/04/08 07:27:58;;;;;;;4.70;1.37;;;;;;;;;;743254;185;915315;-64
2022/04/08 07:30:22;;;;;;;4.23;1.27;;;;;;;;;;747281;184;918108;-62
2022/04/08 07:32:52;;;;;;;3.70;1.20;;;;;;;;;;716310;192;919391;-64
2022/04/08 07:35:14;;;;;;;7.50;1.70;;;;;;;;;;742542;187;919878;-63
2022/04/08 07:37:40;;;;;;;3.20;1.23;;;;;;;;;;745626;185;923977;-65
2022/04/08 07:40:07;;;;;;;7.50;1.30;;;;;;;;;;744123;185;1116939;-64
2022/04/08 07:42:32;;;;;;;2.93;1.20;;;;;;;;;;738513;186;918828;-64
2022/04/08 07:44:58;;;;;;;4.50;1.40;;;;;;;;;;743218;187;919225;-64
2022/04/08 07:47:27;;;;;;;3.57;1.60;;;;;;;;;;748849;184;919718;-65
2022/04/08 07:50:09;;;;;;;4.57;1.53;;;;;;;;;;737825;187;1034631;-65
2022/04/08 07:52:34;;;;;;;3.97;1.30;;;;;;;;;;740227;187;932228;-65
2022/04/08 07:54:59;;;;;;;3.70;1.50;;;;;;;;;;746410;187;919152;-65
2022/04/08 07:57:25;;;;;;;7.83;2.00;;;;;;;;;;748842;187;919550;-65
2022/04/08 07:59:51;;;;;;;4.90;1.53;;;;;;;;;;743367;187;918908;-64
2022/04/08 08:02:17;;;;;;;3.90;1.70;;;;;;;;;;745441;185;918585;-64
2022/04/08 08:04:43;;;;;;;2.90;1.47;;;;;;;;;;745350;184;967836;-64
2022/04/08 08:07:08;;;;;;;8.53;2.37;;;;;;;;;;751692;187;919621;-64
2022/04/08 08:09:35;;;;;;;5.00;1.70;;;;;;;;;;747972;185;921651;-64
2022/04/08 08:12:00;;;;;;;3.90;1.50;;;;;;;;;;742011;188;919204;-64
2022/04/08 08:14:26;;;;;;;3.60;1.80;;;;;;;;;;747514;186;919607;-64
2022/04/08 08:16:52;;;;;;;2.73;1.00;;;;;;;;;;744226;187;919069;-65
2022/04/08 08:19:18;;;;;;;4.20;1.27;;;;;;;;;;743911;187;918696;-64
2022/04/08 08:21:43;;;;;;;8.60;1.60;;;;;;;;;;750870;187;917686;-66
2022/04/08 08:24:09;;;;;;;3.10;1.33;;;;;;;;;;748322;187;917689;-66
2022/04/08 08:26:35;;;;;;;3.27;1.20;;;;;;;;;;744232;186;919990;-65
2022/04/08 08:29:01;;;;;;;2.57;1.30;;;;;;;;;;744391;186;918844;-65
2022/04/08 08:31:27;;;;;;;7.40;1.00;;;;;;;;;;751951;187;918009;-61
2022/04/08 08:33:53;;;;;;;7.63;1.60;;;;;;;;;;747324;185;919489;-64
2022/04/08 08:36:19;;;;;;;2.30;1.00;;;;;;;;;;743776;187;923568;-64
2022/04/08 08:38:44;;;;;;;5.90;1.80;;;;;;;;;;754106;184;634545;-64
2022/04/08 08:41:10;;;;;;;4.37;1.40;;;;;;;;;;749735;185;639118;-63
2022/04/08 08:43:36;;;;;;;3.87;1.67;;;;;;;;;;746783;186;915322;-63
2022/04/08 08:46:02;;;;;;;2.70;1.13;;;;;;;;;;751040;186;918645;-64
2022/04/08 08:48:29;;;;;;;3.20;1.30;;;;;;;;;;746666;187;918935;-65
2022/04/08 08:50:55;;;;;;;4.60;2.27;;;;;;;;;;740638;187;923696;-64
2022/04/08 08:53:19;;;;;;;5.30;1.43;;;;;;;;;;744966;187;918605;-63
2022/04/08 08:55:48;;;;;;;4.60;1.43;;;;;;;;;;744509;184;915552;-64
2022/04/08 08:58:12;;;;;;;5.33;1.70;;;;;;;;;;743255;187;920188;-63
2022/04/08 09:00:38;;;;;;;4.13;1.13;;;;;;;;;;745233;187;920223;-65
2022/04/08 09:03:03;;;;;;;2.50;1.30;;;;;;;;;;754398;185;918286;-64
2022/04/08 09:05:29;;;;;;;2.40;1.37;;;;;;;;;;745224;186;924158;-64
2022/04/08 09:07:55;;;;;;;3.07;1.30;;;;;;;;;;745546;187;919756;-64
2022/04/08 09:10:26;;;;;;;3.43;1.40;;;;;;;;;;747653;187;918990;-64
2022/04/08 09:12:53;;;;;;;6.73;1.67;;;;;;;;;;734625;187;918293;-64
2022/04/08 09:15:18;;;;;;;4.27;1.50;;;;;;;;;;741727;186;919150;-64
2022/04/08 09:17:44;;;;;;;4.70;1.33;;;;;;;;;;745140;187;921416;-65
2022/04/08 09:20:11;;;;;;;2.73;1.33;;;;;;;;;;745699;187;919113;-64
2022/04/08 09:22:36;;;;;;;3.20;1.40;;;;;;;;;;742800;187;919330;-64
2022/04/08 09:25:08;;;;;;;2.60;1.03;;;;;;;;;;745793;186;1021243;-63
2022/04/08 09:27:31;;;;;;;4.17;1.20;;;;;;;;;;749474;187;919022;-66
2022/04/08 09:29:57;;;;;;;4.73;1.90;;;;;;;;;;744675;187;920185;-65
2022/04/08 09:32:24;;;;;;;4.10;1.20;;;;;;;;;;743804;184;934066;-66
2022/04/08 09:34:49;;;;;;;2.93;1.30;;;;;;;;;;743219;185;917779;-65
2022/04/08 09:37:16;;;;;;;5.40;1.63;;;;;;;;;;740437;186;919381;-64
2022/04/08 09:39:47;;;;;;;5.70;1.90;;;;;;;;;;738334;186;1328468;-65
2022/04/08 09:42:12;;;;;;;2.50;1.30;;;;;;;;;;740695;186;918376;-65
2022/04/08 09:44:39;;;;;;;5.23;1.67;;;;;;;;;;750808;186;919049;-66
2022/04/08 09:47:04;;;;;;;4.33;1.33;;;;;;;;;;746263;186;919037;-65
2022/04/08 09:49:30;;;;;;;4.60;1.77;;;;;;;;;;745191;183;919463;-66
2022/04/08 09:51:56;;;;;;;4.67;1.40;;;;;;;;;;745844;185;919329;-68
2022/04/08 09:54:22;;;;;;;9.33;1.67;;;;;;;;;;752904;185;919861;-66
2022/04/08 09:56:48;;;;;;;2.20;1.00;;;;;;;;;;742953;185;1243980;-65
2022/04/08 09:59:13;;;;;;;3.42;1.30;;;;;;;;;;745690;187;918941;-65
2022/04/08 10:01:40;;;;;;;2.70;1.50;;;;;;;;;;749009;184;918471;-66
2022/04/08 10:04:06;;;;;;;13.10;2.10;;;;;;;;;;745818;186;919756;-66
2022/04/08 10:06:31;;;;;;;4.30;0.90;;;;;;;;;;746073;185;912032;-66
2022/04/08 10:08:57;;;;;;;4.30;1.10;;;;;;;;;;750317;185;917255;-65
2022/04/08 10:11:25;;;;;;;2.50;1.10;;;;;;;;;;746955;185;912865;-66
2022/04/08 10:13:55;;;;;;;2.00;1.00;;;;;;;;;;742034;185;912351;-67
2022/04/08 10:16:20;;;;;;;3.03;1.10;;;;;;;;;;741000;186;915333;-65
2022/04/08 10:18:46;;;;;;;4.05;1.12;;;;;;;;;;746517;185;918846;-66
2022/04/08 10:21:13;;;;;;;7.67;1.43;;;;;;;;;;740097;185;919448;-65
2022/04/08 10:23:39;;;;;;;4.03;1.20;;;;;;;;;;736961;185;1015042;-65
2022/04/08 10:26:05;;;;;;;3.10;1.50;;;;;;;;;;741946;186;918714;-66
2022/04/08 10:28:35;;;;;;;6.23;1.70;;;;;;;;;;742805;187;919534;-65
2022/04/08 10:31:00;;;;;;;3.67;1.30;;;;;;;;;;740912;188;1021337;-67
2022/04/08 10:33:26;;;;;;;2.20;1.10;;;;;;;;;;739878;185;920389;-64
2022/04/08 10:35:53;;;;;;;4.40;1.60;;;;;;;;;;753557;186;910385;-65
2022/04/08 10:38:18;;;;;;;3.50;1.50;;;;;;;;;;747759;187;916440;-63
2022/04/08 10:40:48;;;;;;;5.25;1.58;;;;;;;;;;746295;185;916268;-64
2022/04/08 10:43:10;;;;;;;3.07;1.40;;;;;;;;;;745469;188;916933;-64
2022/04/08 10:45:36;;;;;;;5.87;1.87;;;;;;;;;;743523;185;633588;-65
2022/04/08 10:48:01;;;;;;;2.67;1.30;;;;;;;;;;732608;189;916378;-65
2022/04/08 10:50:28;;;;;;;2.37;1.23;;;;;;;;;;743176;184;915989;-64
2022/04/08 10:53:00;;;;;;;4.13;1.53;;;;;;;;;;755821;184;870401;-68
2022/04/08 10:55:26;;;;;;;4.93;1.70;;;;;;;;;;753709;184;639574;-65
2022/04/08 10:57:52;;;;;;;4.30;1.73;;;;;;;;;;745080;187;917795;-65
2022/04/08 11:00:18;;;;;;;5.03;1.20;;;;;;;;;;751653;187;907909;-65
2022/04/08 11:02:44;;;;;;;3.03;1.30;;;;;;;;;;751196;184;919493;-64
2022/04/08 11:05:10;;;;;;;4.47;1.47;;;;;;;;;;749036;186;919088;-65
2022/04/08 11:07:35;;;;;;;4.00;1.57;;;;;;;;;;746510;186;918597;-65
2022/04/08 11:10:01;;;;;;;3.07;1.57;;;;;;;;;;740601;185;918029;-64
2022/04/08 11:12:30;;;;;;;4.43;1.27;;;;;;;;;;739323;186;1431171;-65
2022/04/08 11:14:54;;;;;;;2.10;1.07;;;;;;;;;;742103;187;919211;-64
2022/04/08 11:17:19;;;;;;;3.50;1.10;;;;;;;;;;744944;186;1125546;-64
2022/04/08 11:19:45;;;;;;;3.80;1.30;;;;;;;;;;737078;183;920346;-65
2022/04/08 11:22:11;;;;;;;2.47;1.03;;;;;;;;;;746132;187;920439;-65
2022/04/08 11:24:36;;;;;;;3.13;1.00;;;;;;;;;;748245;186;712056;-67
2022/04/08 11:27:03;;;;;;;2.90;1.40;;;;;;;;;;751143;185;918735;-65
2022/04/08 11:29:28;;;;;;;3.20;1.20;;;;;;;;;;739424;186;937441;-64
2022/04/08 11:31:54;;;;;;;4.47;1.73;;;;;;;;;;754870;185;919557;-65
2022/04/08 11:34:23;;;;;;;4.00;1.00;;;;;;;;;;753188;185;944918;-64
2022/04/08 11:36:49;;;;;;;3.10;1.30;;;;;;;;;;743346;187;918772;-64
2022/04/08 11:39:19;;;;;;;2.67;1.23;;;;;;;;;;749854;185;645809;-67
2022/04/08 11:41:44;;;;;;;6.90;1.30;;;;;;;;;;753522;185;627202;-66
2022/04/08 11:44:12;;;;;;;10.07;1.80;;;;;;;;;;746122;187;919170;-66
2022/04/08 11:46:36;;;;;;;3.50;1.20;;;;;;;;;;744622;187;918167;-67
2022/04/08 11:49:03;;;;;;;4.47;1.10;;;;;;;;;;747214;187;919112;-66
2022/04/08 11:51:29;;;;;;;5.27;1.73;;;;;;;;;;743617;187;918226;-67
2022/04/08 11:53:55;;;;;;;7.03;1.70;;;;;;;;;;745085;187;942343;-65
2022/04/08 11:56:21;;;;;;;5.20;1.62;;;;;;;;;;742327;187;918873;-66
2022/04/08 11:58:51;;;;;;;2.80;1.20;;;;;;;;;;740836;187;920477;-65
2022/04/08 12:01:17;;;;;;;5.20;1.37;;;;;;;;;;740675;187;937974;-66
2022/04/08 12:03:43;;;;;;;6.83;1.83;;;;;;;;;;739800;185;957416;-66
2022/04/08 12:06:09;;;;;;;5.53;1.50;;;;;;;;;;749952;185;918791;-67
2022/04/08 12:08:35;;;;;;;4.73;1.80;;;;;;;;;;748645;186;917795;-65
2022/04/08 12:11:01;;;;;;;3.63;1.40;;;;;;;;;;745963;186;919297;-66
2022/04/08 12:13:29;;;;;;;4.55;1.20;;;;;;;;;;751305;186;916042;-65
2022/04/08 12:15:53;;;;;;;4.67;1.30;;;;;;;;;;752913;186;1017831;-67
2022/04/08 12:18:22;;;;;;;4.23;1.43;;;;;;;;;;746011;187;919487;-66
2022/04/08 12:20:47;;;;;;;3.50;1.20;;;;;;;;;;741133;186;919908;-66
2022/04/08 12:23:13;;;;;;;2.47;1.20;;;;;;;;;;750529;185;920236;-66
2022/04/08 12:25:39;;;;;;;8.13;2.10;;;;;;;;;;742800;187;923065;-66
2022/04/08 12:28:09;;;;;;;3.70;1.30;;;;;;;;;;745308;185;919709;-68
2022/04/08 12:30:35;;;;;;;3.60;1.30;;;;;;;;;;743827;184;919328;-67
2022/04/08 12:33:01;;;;;;;2.90;1.40;;;;;;;;;;742226;187;919613;-67
2022/04/08 12:35:27;;;;;;;4.20;1.73;;;;;;;;;;740906;187;918391;-68
2022/04/08 12:37:52;;;;;;;6.05;1.92;;;;;;;;;;743740;186;920267;-67
2022/04/08 12:40:18;;;;;;;3.30;1.07;;;;;;;;;;753592;186;918325;-67
2022/04/08 12:42:44;;;;;;;2.00;0.90;;;;;;;;;;748486;185;922300;-68
2022/04/08 12:45:10;;;;;;;4.28;1.37;;;;;;;;;;744736;186;926122;-68
2022/04/08 12:47:36;;;;;;;5.30;1.33;;;;;;;;;;748398;186;918496;-67
2022/04/08 12:50:02;;;;;;;4.27;1.80;;;;;;;;;;745062;187;919379;-66
2022/04/08 12:52:28;;;;;;;3.40;1.90;;;;;;;;;;745444;184;919659;-68
2022/04/08 12:54:54;;;;;;;4.07;1.70;;;;;;;;;;750153;185;910162;-69
2022/04/08 12:57:20;;;;;;;3.00;1.20;;;;;;;;;;748211;185;907339;-66
2022/04/08 12:59:46;;;;;;;9.73;1.67;;;;;;;;;;742202;185;922100;-67
2022/04/08 13:02:11;;;;;;;3.17;1.30;;;;;;;;;;747098;185;921032;-68
2022/04/08 13:04:38;;;;;;;3.90;1.50;;;;;;;;;;753419;184;614054;-68
2022/04/08 13:07:07;;;;;;;3.70;1.20;;;;;;;;;;744332;185;1693576;-66
2022/04/08 13:09:29;;;;;;;3.50;1.40;;;;;;;;;;747579;187;625042;-66
2022/04/08 13:11:55;;;;;;;2.73;1.60;;;;;;;;;;751897;186;630626;-66
2022/04/08 13:14:21;;;;;;;6.13;1.20;;;;;;;;;;746362;186;915689;-66
2022/04/08 13:16:47;;;;;;;4.43;1.90;;;;;;;;;;744723;186;913333;-67
2022/04/08 13:19:13;;;;;;;3.50;1.20;;;;;;;;;;745024;187;912535;-68
2022/04/08 13:21:39;;;;;;;3.40;1.40;;;;;;;;;;740938;186;911552;-67
2022/04/08 13:24:05;;;;;;;4.47;1.33;;;;;;;;;;741130;187;912448;-67
2022/04/08 13:26:31;;;;;;;3.40;1.27;;;;;;;;;;747646;186;636168;-67
2022/04/08 13:28:58;;;;;;;5.70;1.37;;;;;;;;;;744794;186;918321;-67
2022/04/08 13:31:24;;;;;;;5.40;1.20;;;;;;;;;;743509;185;1020562;-67
2022/04/08 13:33:49;;;;;;;7.15;1.25;;;;;;;;;;746821;187;918982;-66
2022/04/08 13:36:16;;;;;;;2.87;1.10;;;;;;;;;;749470;187;917882;-70
2022/04/08 13:38:42;;;;;;;5.30;1.67;;;;;;;;;;744978;184;920649;-66
2022/04/08 13:41:08;;;;;;;2.90;1.23;;;;;;;;;;746793;187;920126;-67
2022/04/08 13:43:34;;;;;;;6.80;1.20;;;;;;;;;;752464;187;919473;-68
2022/04/08 13:46:00;;;;;;;2.50;1.00;;;;;;;;;;745501;186;919754;-66
2022/04/08 13:48:26;;;;;;;2.77;1.13;;;;;;;;;;744072;187;1029723;-67
2022/04/08 13:50:52;;;;;;;3.20;1.33;;;;;;;;;;751163;183;918986;-67
2022/04/08 13:53:17;;;;;;;4.97;1.10;;;;;;;;;;755171;185;918445;-67
2022/04/08 13:55:43;;;;;;;3.73;1.33;;;;;;;;;;748665;184;814543;-67
2022/04/08 13:58:09;;;;;;;4.07;1.00;;;;;;;;;;740356;188;919273;-67
2022/04/08 14:00:35;;;;;;;3.00;1.33;;;;;;;;;;745165;188;918453;-68
2022/04/08 14:03:01;;;;;;;3.50;1.20;;;;;;;;;;725804;192;624845;-68
2022/04/08 14:05:26;;;;;;;5.47;2.00;;;;;;;;;;744610;187;632447;-67
2022/04/08 14:07:52;;;;;;;2.40;0.87;;;;;;;;;;748185;187;619983;-66
2022/04/08 14:10:19;;;;;;;2.93;1.30;;;;;;;;;;740473;186;917892;-67
2022/04/08 14:12:44;;;;;;;2.43;0.90;;;;;;;;;;740977;185;918596;-66
2022/04/08 14:15:10;;;;;;;4.63;1.60;;;;;;;;;;744618;186;919185;-67
2022/04/08 14:17:36;;;;;;;3.80;1.47;;;;;;;;;;744976;186;919451;-68
2022/04/08 14:20:02;;;;;;;3.43;1.30;;;;;;;;;;740905;185;919108;-66